sensor_id;sensor_type;location;lat;lon;timestamp;temperature;humidity
11538;DHT22;50159;49.426;11.182;2023-11-19T00:00:09;5.10;99.90
11538;DHT22;50159;49.426;11.182;2023-11-19T00:02:40;5.10;99.90
11538;DHT22;50159;49.426;11.182;2023-11-19T00:05:09;5.20;99.90
11538;DHT22;50159;49.426;11.182;2023-11-19T00:07:40;5.20;99.90
11538;DHT22;50159;49.426;11.182;2023-11-19T00:10:12;5.20;99.90
11538;DHT22;50159;49.426;11.182;2023-11-19T00:12:43;5.10;99.90
11538;DHT22;50159;49.426;11.182;2023-11-19T00:15:11;5.10;99.90
11538;DHT22;50159;49.426;11.182;2023-11-19T00:17:40;5.10;99.90
11538;DHT22;50159;49.426;11.182;2023-11-19T00:20:12;5.20;99.90
11538;DHT22;50159;49.426;11.182;2023-11-19T00:22:40;5.20;99.90
11538;DHT22;50159;49.426;11.182;2023-11-19T00:25:10;5.10;99.90
11538;DHT22;50159;49.426;11.182;2023-11-19T00:27:37;5.20;99.90
11538;DHT22;50159;49.426;11.182;2023-11-19T00:30:07;5.20;99.90
11538;DHT22;50159;49.426;11.182;2023-11-19T00:32:35;5.10;99.90
11538;DHT22;50159;49.426;11.182;2023-11-19T00:35:03;5.10;99.90
11538;DHT22;50159;49.426;11.182;2023-11-19T00:37:31;5.10;99.90
11538;DHT22;50159;49.426;11.182;2023-11-19T00:39:57;5.20;99.90
11538;DHT22;50159;49.426;11.182;2023-11-19T00:42:25;5.20;99.90
11538;DHT22;50159;49.426;11.182;2023-11-19T00:44:51;5.20;99.90
11538;DHT22;50159;49.426;11.182;2023-11-19T00:47:19;5.30;99.90
11538;DHT22;50159;49.426;11.182;2023-11-19T00:49:49;5.30;99.90
11538;DHT22;50159;49.426;11.182;2023-11-19T00:52:17;5.30;99.90
11538;DHT22;50159;49.426;11.182;2023-11-19T00:54:45;5.30;99.90
11538;DHT22;50159;49.426;11.182;2023-11-19T00:57:11;5.30;99.90
11538;DHT22;50159;49.426;11.182;2023-11-19T00:59:41;5.30;99.90
11538;DHT22;50159;49.426;11.182;2023-11-19T01:02:09;5.30;99.90
11538;DHT22;50159;49.426;11.182;2023-11-19T01:04:36;5.30;99.90
11538;DHT22;50159;49.426;11.182;2023-11-19T01:07:05;5.30;99.90
11538;DHT22;50159;49.426;11.182;2023-11-19T01:09:33;5.30;99.90
11538;DHT22;50159;49.426;11.182;2023-11-19T01:12:01;5.40;99.90
11538;DHT22;50159;49.426;11.182;2023-11-19T01:14:29;5.40;99.90
11538;DHT22;50159;49.426;11.182;2023-11-19T01:16:56;5.30;99.90
11538;DHT22;50159;49.426;11.182;2023-11-19T01:19:24;5.30;99.90
11538;DHT22;50159;49.426;11.182;2023-11-19T01:21:51;5.30;99.90
11538;DHT22;50159;49.426;11.182;2023-11-19T01:24:18;5.40;99.90
11538;DHT22;50159;49.426;11.182;2023-11-19T01:26:45;5.40;99.90
11538;DHT22;50159;49.426;11.182;2023-11-19T01:29:15;5.40;99.90
11538;DHT22;50159;49.426;11.182;2023-11-19T01:31:43;5.40;99.90
11538;DHT22;50159;49.426;11.182;2023-11-19T01:34:17;5.40;99.90
11538;DHT22;50159;49.426;11.182;2023-11-19T01:36:44;5.40;99.90
11538;DHT22;50159;49.426;11.182;2023-11-19T01:39:13;5.40;99.90
11538;DHT22;50159;49.426;11.182;2023-11-19T01:41:42;5.50;99.90
11538;DHT22;50159;49.426;11.182;2023-11-19T01:44:09;5.50;99.90
11538;DHT22;50159;49.426;11.182;2023-11-19T01:46:40;5.50;99.90
11538;DHT22;50159;49.426;11.182;2023-11-19T01:49:09;5.50;99.90
11538;DHT22;50159;49.426;11.182;2023-11-19T01:51:36;5.50;99.90
11538;DHT22;50159;49.426;11.182;2023-11-19T01:54:03;5.50;99.90
11538;DHT22;50159;49.426;11.182;2023-11-19T01:56:32;5.50;99.90
11538;DHT22;50159;49.426;11.182;2023-11-19T01:58:59;5.50;99.90
11538;DHT22;50159;49.426;11.182;2023-11-19T02:01:29;5.50;99.90
11538;DHT22;50159;49.426;11.182;2023-11-19T02:03:56;5.50;99.90
11538;DHT22;50159;49.426;11.182;2023-11-19T02:06:25;5.50;99.90
11538;DHT22;50159;49.426;11.182;2023-11-19T02:08:53;5.50;99.90
11538;DHT22;50159;49.426;11.182;2023-11-19T02:11:20;5.50;99.90
11538;DHT22;50159;49.426;11.182;2023-11-19T02:13:46;5.60;99.90
11538;DHT22;50159;49.426;11.182;2023-11-19T02:16:13;5.50;99.90
11538;DHT22;50159;49.426;11.182;2023-11-19T02:18:40;5.50;99.90
11538;DHT22;50159;49.426;11.182;2023-11-19T02:21:07;5.50;99.90
11538;DHT22;50159;49.426;11.182;2023-11-19T02:23:37;5.50;99.90
11538;DHT22;50159;49.426;11.182;2023-11-19T02:28:55;5.50;99.90
11538;DHT22;50159;49.426;11.182;2023-11-19T02:31:22;5.50;99.90
11538;DHT22;50159;49.426;11.182;2023-11-19T02:33:49;5.50;99.90
11538;DHT22;50159;49.426;11.182;2023-11-19T02:36:16;5.60;99.90
11538;DHT22;50159;49.426;11.182;2023-11-19T02:38:43;5.60;99.90
11538;DHT22;50159;49.426;11.182;2023-11-19T02:41:10;5.60;99.90
11538;DHT22;50159;49.426;11.182;2023-11-19T02:43:37;5.60;99.90
11538;DHT22;50159;49.426;11.182;2023-11-19T02:46:05;5.60;99.90
11538;DHT22;50159;49.426;11.182;2023-11-19T02:48:38;5.60;99.90
11538;DHT22;50159;49.426;11.182;2023-11-19T02:51:05;5.60;99.90
11538;DHT22;50159;49.426;11.182;2023-11-19T02:53:36;5.60;99.90
11538;DHT22;50159;49.426;11.182;2023-11-19T02:56:07;5.60;99.90
11538;DHT22;50159;49.426;11.182;2023-11-19T02:58:53;5.60;99.90
11538;DHT22;50159;49.426;11.182;2023-11-19T03:01:24;5.60;99.90
11538;DHT22;50159;49.426;11.182;2023-11-19T03:03:58;5.60;99.90
11538;DHT22;50159;49.426;11.182;2023-11-19T03:06:28;5.70;99.90
11538;DHT22;50159;49.426;11.182;2023-11-19T03:08:55;5.60;99.90
11538;DHT22;50159;49.426;11.182;2023-11-19T03:11:22;5.70;99.90
11538;DHT22;50159;49.426;11.182;2023-11-19T03:13:49;5.70;99.90
11538;DHT22;50159;49.426;11.182;2023-11-19T03:16:16;5.70;99.90
11538;DHT22;50159;49.426;11.182;2023-11-19T03:18:44;5.70;99.90
11538;DHT22;50159;49.426;11.182;2023-11-19T03:21:10;5.70;99.90
11538;DHT22;50159;49.426;11.182;2023-11-19T03:23:37;5.80;99.90
11538;DHT22;50159;49.426;11.182;2023-11-19T03:26:06;5.80;99.90
11538;DHT22;50159;49.426;11.182;2023-11-19T03:28:34;5.80;99.90
11538;DHT22;50159;49.426;11.182;2023-11-19T03:31:04;5.80;99.90
11538;DHT22;50159;49.426;11.182;2023-11-19T03:33:35;5.80;99.90
11538;DHT22;50159;49.426;11.182;2023-11-19T03:36:01;5.80;99.90
11538;DHT22;50159;49.426;11.182;2023-11-19T03:38:28;5.80;99.90
11538;DHT22;50159;49.426;11.182;2023-11-19T03:40:55;5.90;99.90
11538;DHT22;50159;49.426;11.182;2023-11-19T03:43:22;5.80;99.90
11538;DHT22;50159;49.426;11.182;2023-11-19T03:45:48;5.80;99.90
11538;DHT22;50159;49.426;11.182;2023-11-19T03:48:16;5.90;99.90
11538;DHT22;50159;49.426;11.182;2023-11-19T03:50:43;5.90;99.90
11538;DHT22;50159;49.426;11.182;2023-11-19T03:53:12;5.90;99.90
11538;DHT22;50159;49.426;11.182;2023-11-19T03:55:39;6.00;99.90
11538;DHT22;50159;49.426;11.182;2023-11-19T03:58:05;6.00;99.90
11538;DHT22;50159;49.426;11.182;2023-11-19T04:00:33;6.00;99.90
11538;DHT22;50159;49.426;11.182;2023-11-19T04:03:00;6.00;99.90
11538;DHT22;50159;49.426;11.182;2023-11-19T04:05:27;6.00;99.90
11538;DHT22;50159;49.426;11.182;2023-11-19T04:07:54;6.10;99.90
11538;DHT22;50159;49.426;11.182;2023-11-19T04:10:21;6.00;99.90
11538;DHT22;50159;49.426;11.182;2023-11-19T04:12:49;6.10;99.90
11538;DHT22;50159;49.426;11.182;2023-11-19T04:15:16;6.10;99.90
11538;DHT22;50159;49.426;11.182;2023-11-19T04:17:43;6.10;99.90
11538;DHT22;50159;49.426;11.182;2023-11-19T04:20:10;6.10;99.90
11538;DHT22;50159;49.426;11.182;2023-11-19T04:22:41;6.10;99.90
11538;DHT22;50159;49.426;11.182;2023-11-19T04:25:08;6.20;99.90
11538;DHT22;50159;49.426;11.182;2023-11-19T04:27:36;6.20;99.90
11538;DHT22;50159;49.426;11.182;2023-11-19T04:30:03;6.20;99.90
11538;DHT22;50159;49.426;11.182;2023-11-19T04:32:32;6.20;99.90
11538;DHT22;50159;49.426;11.182;2023-11-19T04:34:58;6.20;99.90
11538;DHT22;50159;49.426;11.182;2023-11-19T04:37:25;6.30;99.90
11538;DHT22;50159;49.426;11.182;2023-11-19T04:39:52;6.20;99.90
11538;DHT22;50159;49.426;11.182;2023-11-19T04:42:22;6.30;99.90
11538;DHT22;50159;49.426;11.182;2023-11-19T04:44:49;6.30;99.90
11538;DHT22;50159;49.426;11.182;2023-11-19T04:47:16;6.30;99.90
11538;DHT22;50159;49.426;11.182;2023-11-19T04:49:43;6.30;99.90
11538;DHT22;50159;49.426;11.182;2023-11-19T04:52:10;6.30;99.90
11538;DHT22;50159;49.426;11.182;2023-11-19T04:54:44;6.30;99.90
11538;DHT22;50159;49.426;11.182;2023-11-19T04:57:12;6.30;99.90
11538;DHT22;50159;49.426;11.182;2023-11-19T04:59:38;6.40;99.90
11538;DHT22;50159;49.426;11.182;2023-11-19T05:02:06;6.40;99.90
11538;DHT22;50159;49.426;11.182;2023-11-19T05:04:32;6.40;99.90
11538;DHT22;50159;49.426;11.182;2023-11-19T05:06:59;6.40;99.90
11538;DHT22;50159;49.426;11.182;2023-11-19T05:09:27;6.40;99.90
11538;DHT22;50159;49.426;11.182;2023-11-19T05:11:53;6.40;99.90
11538;DHT22;50159;49.426;11.182;2023-11-19T05:14:20;6.50;99.90
11538;DHT22;50159;49.426;11.182;2023-11-19T05:16:48;6.50;99.90
11538;DHT22;50159;49.426;11.182;2023-11-19T05:19:15;6.50;99.90
11538;DHT22;50159;49.426;11.182;2023-11-19T05:21:43;6.50;99.90
11538;DHT22;50159;49.426;11.182;2023-11-19T05:24:10;6.50;99.90
11538;DHT22;50159;49.426;11.182;2023-11-19T05:26:38;6.50;99.90
11538;DHT22;50159;49.426;11.182;2023-11-19T05:29:05;6.50;99.90
11538;DHT22;50159;49.426;11.182;2023-11-19T05:31:32;6.60;99.90
11538;DHT22;50159;49.426;11.182;2023-11-19T05:34:02;6.60;99.90
11538;DHT22;50159;49.426;11.182;2023-11-19T05:36:29;6.60;99.90
11538;DHT22;50159;49.426;11.182;2023-11-19T05:38:56;6.70;99.90
11538;DHT22;50159;49.426;11.182;2023-11-19T05:41:23;6.70;99.90
11538;DHT22;50159;49.426;11.182;2023-11-19T05:43:50;6.70;99.90
11538;DHT22;50159;49.426;11.182;2023-11-19T05:46:18;6.80;99.90
11538;DHT22;50159;49.426;11.182;2023-11-19T05:48:46;6.80;99.90
11538;DHT22;50159;49.426;11.182;2023-11-19T05:51:14;6.80;99.90
11538;DHT22;50159;49.426;11.182;2023-11-19T05:53:44;6.80;99.90
11538;DHT22;50159;49.426;11.182;2023-11-19T05:56:14;6.90;99.90
11538;DHT22;50159;49.426;11.182;2023-11-19T05:58:42;6.90;99.90
11538;DHT22;50159;49.426;11.182;2023-11-19T06:01:11;6.90;99.90
11538;DHT22;50159;49.426;11.182;2023-11-19T06:03:38;6.90;99.90
11538;DHT22;50159;49.426;11.182;2023-11-19T06:06:05;7.00;99.90
11538;DHT22;50159;49.426;11.182;2023-11-19T06:08:32;7.00;99.90
11538;DHT22;50159;49.426;11.182;2023-11-19T06:10:59;7.00;99.90
11538;DHT22;50159;49.426;11.182;2023-11-19T06:13:28;7.00;99.90
11538;DHT22;50159;49.426;11.182;2023-11-19T06:15:57;7.10;99.90
11538;DHT22;50159;49.426;11.182;2023-11-19T06:18:24;7.10;99.90
11538;DHT22;50159;49.426;11.182;2023-11-19T06:20:54;7.10;99.90
11538;DHT22;50159;49.426;11.182;2023-11-19T06:23:21;7.10;99.90
11538;DHT22;50159;49.426;11.182;2023-11-19T06:25:48;7.10;99.90
11538;DHT22;50159;49.426;11.182;2023-11-19T06:28:15;7.20;99.90
11538;DHT22;50159;49.426;11.182;2023-11-19T06:30:41;7.20;99.90
11538;DHT22;50159;49.426;11.182;2023-11-19T06:33:13;7.20;99.90
11538;DHT22;50159;49.426;11.182;2023-11-19T06:35:40;7.20;99.90
11538;DHT22;50159;49.426;11.182;2023-11-19T06:38:07;7.20;99.90
11538;DHT22;50159;49.426;11.182;2023-11-19T06:40:34;7.30;99.90
11538;DHT22;50159;49.426;11.182;2023-11-19T06:43:02;7.30;99.90
11538;DHT22;50159;49.426;11.182;2023-11-19T06:45:30;7.30;99.90
11538;DHT22;50159;49.426;11.182;2023-11-19T06:47:57;7.30;99.90
11538;DHT22;50159;49.426;11.182;2023-11-19T06:50:27;7.30;99.90
11538;DHT22;50159;49.426;11.182;2023-11-19T06:52:54;7.40;99.90
11538;DHT22;50159;49.426;11.182;2023-11-19T06:55:21;7.40;99.90
11538;DHT22;50159;49.426;11.182;2023-11-19T06:57:48;7.40;99.90
11538;DHT22;50159;49.426;11.182;2023-11-19T07:00:15;7.40;99.90
11538;DHT22;50159;49.426;11.182;2023-11-19T07:02:42;7.40;99.90
11538;DHT22;50159;49.426;11.182;2023-11-19T07:05:11;7.50;99.90
11538;DHT22;50159;49.426;11.182;2023-11-19T07:07:39;7.50;99.90
11538;DHT22;50159;49.426;11.182;2023-11-19T07:10:07;7.50;99.90
11538;DHT22;50159;49.426;11.182;2023-11-19T07:12:36;7.50;99.90
11538;DHT22;50159;49.426;11.182;2023-11-19T07:15:03;7.60;99.90
11538;DHT22;50159;49.426;11.182;2023-11-19T07:17:31;7.60;99.90
11538;DHT22;50159;49.426;11.182;2023-11-19T07:19:58;7.60;99.90
11538;DHT22;50159;49.426;11.182;2023-11-19T07:22:26;7.60;99.90
11538;DHT22;50159;49.426;11.182;2023-11-19T07:24:53;7.60;99.90
11538;DHT22;50159;49.426;11.182;2023-11-19T07:27:20;7.70;99.90
11538;DHT22;50159;49.426;11.182;2023-11-19T07:29:47;7.80;99.90
11538;DHT22;50159;49.426;11.182;2023-11-19T07:32:14;7.80;99.90
11538;DHT22;50159;49.426;11.182;2023-11-19T07:34:41;7.80;99.90
11538;DHT22;50159;49.426;11.182;2023-11-19T07:37:08;7.90;99.90
11538;DHT22;50159;49.426;11.182;2023-11-19T07:39:35;7.90;99.90
11538;DHT22;50159;49.426;11.182;2023-11-19T07:42:02;8.00;99.90
11538;DHT22;50159;49.426;11.182;2023-11-19T07:44:29;8.00;99.90
11538;DHT22;50159;49.426;11.182;2023-11-19T07:46:56;8.10;99.90
11538;DHT22;50159;49.426;11.182;2023-11-19T07:49:23;8.20;99.90
11538;DHT22;50159;49.426;11.182;2023-11-19T07:51:50;8.20;99.90
11538;DHT22;50159;49.426;11.182;2023-11-19T07:54:17;8.30;99.90
11538;DHT22;50159;49.426;11.182;2023-11-19T07:56:44;8.30;99.90
11538;DHT22;50159;49.426;11.182;2023-11-19T07:59:11;8.30;99.90
11538;DHT22;50159;49.426;11.182;2023-11-19T08:01:38;8.40;99.90
11538;DHT22;50159;49.426;11.182;2023-11-19T08:04:05;8.40;99.90
11538;DHT22;50159;49.426;11.182;2023-11-19T08:06:32;8.40;99.90
11538;DHT22;50159;49.426;11.182;2023-11-19T08:08:59;8.40;99.90
11538;DHT22;50159;49.426;11.182;2023-11-19T08:11:26;8.40;99.90
11538;DHT22;50159;49.426;11.182;2023-11-19T08:13:53;8.40;99.90
11538;DHT22;50159;49.426;11.182;2023-11-19T08:16:19;8.50;99.90
11538;DHT22;50159;49.426;11.182;2023-11-19T08:18:46;8.50;99.90
11538;DHT22;50159;49.426;11.182;2023-11-19T08:21:13;8.60;99.90
11538;DHT22;50159;49.426;11.182;2023-11-19T08:23:40;8.60;99.90
11538;DHT22;50159;49.426;11.182;2023-11-19T08:26:07;8.70;99.90
11538;DHT22;50159;49.426;11.182;2023-11-19T08:28:34;8.80;99.90
11538;DHT22;50159;49.426;11.182;2023-11-19T08:31:02;8.90;99.90
11538;DHT22;50159;49.426;11.182;2023-11-19T08:33:32;9.00;99.90
11538;DHT22;50159;49.426;11.182;2023-11-19T08:35:59;9.10;99.90
11538;DHT22;50159;49.426;11.182;2023-11-19T08:38:27;9.20;99.90
11538;DHT22;50159;49.426;11.182;2023-11-19T08:40:56;9.30;99.90
11538;DHT22;50159;49.426;11.182;2023-11-19T08:43:27;9.30;99.90
11538;DHT22;50159;49.426;11.182;2023-11-19T08:45:54;9.40;99.90
11538;DHT22;50159;49.426;11.182;2023-11-19T08:48:21;9.40;99.90
11538;DHT22;50159;49.426;11.182;2023-11-19T08:50:48;9.50;99.90
11538;DHT22;50159;49.426;11.182;2023-11-19T08:53:15;9.50;99.90
11538;DHT22;50159;49.426;11.182;2023-11-19T08:55:42;9.60;99.90
11538;DHT22;50159;49.426;11.182;2023-11-19T08:58:09;9.70;99.90
11538;DHT22;50159;49.426;11.182;2023-11-19T09:00:36;9.70;99.90
11538;DHT22;50159;49.426;11.182;2023-11-19T09:03:03;9.80;99.90
11538;DHT22;50159;49.426;11.182;2023-11-19T09:05:30;9.90;99.90
11538;DHT22;50159;49.426;11.182;2023-11-19T09:07:57;10.00;99.90
11538;DHT22;50159;49.426;11.182;2023-11-19T09:10:24;10.10;99.90
11538;DHT22;50159;49.426;11.182;2023-11-19T09:12:51;10.30;99.90
11538;DHT22;50159;49.426;11.182;2023-11-19T09:15:19;10.40;99.90
11538;DHT22;50159;49.426;11.182;2023-11-19T09:17:46;10.60;99.90
11538;DHT22;50159;49.426;11.182;2023-11-19T09:20:13;10.70;99.90
11538;DHT22;50159;49.426;11.182;2023-11-19T09:22:42;10.90;99.90
11538;DHT22;50159;49.426;11.182;2023-11-19T09:25:09;11.00;99.90
11538;DHT22;50159;49.426;11.182;2023-11-19T09:27:36;11.00;99.90
11538;DHT22;50159;49.426;11.182;2023-11-19T09:30:04;11.10;99.90
11538;DHT22;50159;49.426;11.182;2023-11-19T09:32:31;11.10;99.90
11538;DHT22;50159;49.426;11.182;2023-11-19T09:34:58;11.20;99.90
11538;DHT22;50159;49.426;11.182;2023-11-19T09:37:26;11.40;99.90
11538;DHT22;50159;49.426;11.182;2023-11-19T09:39:53;11.40;99.90
11538;DHT22;50159;49.426;11.182;2023-11-19T09:42:20;11.50;99.90
11538;DHT22;50159;49.426;11.182;2023-11-19T09:44:47;11.50;99.90
11538;DHT22;50159;49.426;11.182;2023-11-19T09:47:16;11.50;99.90
11538;DHT22;50159;49.426;11.182;2023-11-19T09:49:45;11.60;99.90
11538;DHT22;50159;49.426;11.182;2023-11-19T09:52:12;11.60;99.90
11538;DHT22;50159;49.426;11.182;2023-11-19T09:54:40;11.50;99.90
11538;DHT22;50159;49.426;11.182;2023-11-19T09:57:07;11.50;99.90
11538;DHT22;50159;49.426;11.182;2023-11-19T09:59:37;11.50;99.90
11538;DHT22;50159;49.426;11.182;2023-11-19T10:02:06;11.50;99.90
11538;DHT22;50159;49.426;11.182;2023-11-19T10:04:35;11.50;99.90
11538;DHT22;50159;49.426;11.182;2023-11-19T10:07:04;11.50;99.90
11538;DHT22;50159;49.426;11.182;2023-11-19T10:09:31;11.60;99.90
11538;DHT22;50159;49.426;11.182;2023-11-19T10:11:57;11.60;99.90
11538;DHT22;50159;49.426;11.182;2023-11-19T10:14:24;11.60;99.90
11538;DHT22;50159;49.426;11.182;2023-11-19T10:16:52;11.60;99.90
11538;DHT22;50159;49.426;11.182;2023-11-19T10:19:19;11.60;99.90
11538;DHT22;50159;49.426;11.182;2023-11-19T10:21:49;11.60;99.90
11538;DHT22;50159;49.426;11.182;2023-11-19T10:24:16;11.60;99.90
11538;DHT22;50159;49.426;11.182;2023-11-19T10:26:59;11.70;99.90
11538;DHT22;50159;49.426;11.182;2023-11-19T10:29:29;11.70;99.90
11538;DHT22;50159;49.426;11.182;2023-11-19T10:31:57;11.70;99.90
11538;DHT22;50159;49.426;11.182;2023-11-19T10:34:44;11.70;99.90
11538;DHT22;50159;49.426;11.182;2023-11-19T10:37:37;11.60;99.90
11538;DHT22;50159;49.426;11.182;2023-11-19T10:40:05;11.60;99.90
11538;DHT22;50159;49.426;11.182;2023-11-19T10:42:32;11.50;99.90
11538;DHT22;50159;49.426;11.182;2023-11-19T10:44:59;11.50;99.90
11538;DHT22;50159;49.426;11.182;2023-11-19T10:47:26;11.50;99.90
11538;DHT22;50159;49.426;11.182;2023-11-19T10:49:55;11.50;99.90
11538;DHT22;50159;49.426;11.182;2023-11-19T10:52:23;11.50;99.90
11538;DHT22;50159;49.426;11.182;2023-11-19T10:54:51;11.50;99.90
11538;DHT22;50159;49.426;11.182;2023-11-19T10:57:21;11.60;99.90
11538;DHT22;50159;49.426;11.182;2023-11-19T10:59:55;11.90;99.90
11538;DHT22;50159;49.426;11.182;2023-11-19T11:02:28;12.10;99.90
11538;DHT22;50159;49.426;11.182;2023-11-19T11:05:02;12.40;99.90
11538;DHT22;50159;49.426;11.182;2023-11-19T11:07:31;12.70;99.90
11538;DHT22;50159;49.426;11.182;2023-11-19T11:10:07;12.90;99.90
11538;DHT22;50159;49.426;11.182;2023-11-19T11:12:37;13.00;99.90
11538;DHT22;50159;49.426;11.182;2023-11-19T11:15:06;13.10;99.90
11538;DHT22;50159;49.426;11.182;2023-11-19T11:17:35;13.00;99.90
11538;DHT22;50159;49.426;11.182;2023-11-19T11:20:04;12.80;99.90
11538;DHT22;50159;49.426;11.182;2023-11-19T11:22:50;12.60;99.90
11538;DHT22;50159;49.426;11.182;2023-11-19T11:25:48;12.40;99.90
11538;DHT22;50159;49.426;11.182;2023-11-19T11:28:46;12.30;99.90
11538;DHT22;50159;49.426;11.182;2023-11-19T11:31:36;12.20;99.90
11538;DHT22;50159;49.426;11.182;2023-11-19T11:34:24;12.10;99.90
11538;DHT22;50159;49.426;11.182;2023-11-19T11:37:30;12.10;99.90
11538;DHT22;50159;49.426;11.182;2023-11-19T11:40:01;12.10;99.90
11538;DHT22;50159;49.426;11.182;2023-11-19T11:42:37;12.10;99.90
11538;DHT22;50159;49.426;11.182;2023-11-19T11:50:11;12.30;99.90
11538;DHT22;50159;49.426;11.182;2023-11-19T11:55:34;12.40;99.90
11538;DHT22;50159;49.426;11.182;2023-11-19T11:58:03;12.40;99.90
11538;DHT22;50159;49.426;11.182;2023-11-19T12:00:36;12.40;99.90
11538;DHT22;50159;49.426;11.182;2023-11-19T12:03:06;12.40;99.90
11538;DHT22;50159;49.426;11.182;2023-11-19T12:05:44;12.30;99.90
11538;DHT22;50159;49.426;11.182;2023-11-19T12:08:16;12.30;99.90
11538;DHT22;50159;49.426;11.182;2023-11-19T12:10:53;12.30;99.90
11538;DHT22;50159;49.426;11.182;2023-11-19T12:13:44;12.30;99.90
11538;DHT22;50159;49.426;11.182;2023-11-19T12:16:18;12.30;99.90
11538;DHT22;50159;49.426;11.182;2023-11-19T12:19:03;12.30;99.90
11538;DHT22;50159;49.426;11.182;2023-11-19T12:21:52;12.30;99.90
11538;DHT22;50159;49.426;11.182;2023-11-19T12:24:39;12.30;99.90
11538;DHT22;50159;49.426;11.182;2023-11-19T12:27:49;12.30;99.90
11538;DHT22;50159;49.426;11.182;2023-11-19T12:30:35;12.30;99.90
11538;DHT22;50159;49.426;11.182;2023-11-19T12:33:21;12.30;99.90
11538;DHT22;50159;49.426;11.182;2023-11-19T12:36:07;12.40;99.90
11538;DHT22;50159;49.426;11.182;2023-11-19T12:38:53;12.50;99.90
11538;DHT22;50159;49.426;11.182;2023-11-19T12:41:51;12.60;99.90
11538;DHT22;50159;49.426;11.182;2023-11-19T12:44:37;12.80;99.90
11538;DHT22;50159;49.426;11.182;2023-11-19T12:47:43;12.80;99.90
11538;DHT22;50159;49.426;11.182;2023-11-19T12:50:10;12.90;99.90
11538;DHT22;50159;49.426;11.182;2023-11-19T12:52:37;13.00;99.90
11538;DHT22;50159;49.426;11.182;2023-11-19T12:55:28;13.10;99.90
11538;DHT22;50159;49.426;11.182;2023-11-19T12:58:29;13.20;99.90
11538;DHT22;50159;49.426;11.182;2023-11-19T13:01:07;13.30;99.90
11538;DHT22;50159;49.426;11.182;2023-11-19T13:03:54;13.30;99.90
11538;DHT22;50159;49.426;11.182;2023-11-19T13:06:34;13.30;99.90
11538;DHT22;50159;49.426;11.182;2023-11-19T13:09:01;13.50;99.90
11538;DHT22;50159;49.426;11.182;2023-11-19T13:11:34;13.60;99.90
11538;DHT22;50159;49.426;11.182;2023-11-19T13:14:04;13.90;99.90
11538;DHT22;50159;49.426;11.182;2023-11-19T13:16:32;14.20;99.90
11538;DHT22;50159;49.426;11.182;2023-11-19T13:18:59;14.60;99.90
11538;DHT22;50159;49.426;11.182;2023-11-19T13:21:27;15.00;99.90
11538;DHT22;50159;49.426;11.182;2023-11-19T13:23:54;15.50;99.90
11538;DHT22;50159;49.426;11.182;2023-11-19T13:26:21;15.60;99.70
11538;DHT22;50159;49.426;11.182;2023-11-19T13:28:48;15.40;98.70
11538;DHT22;50159;49.426;11.182;2023-11-19T13:31:15;15.20;99.10
11538;DHT22;50159;49.426;11.182;2023-11-19T13:33:42;14.80;98.70
11538;DHT22;50159;49.426;11.182;2023-11-19T13:36:09;14.50;99.10
11538;DHT22;50159;49.426;11.182;2023-11-19T13:38:41;14.30;99.90
11538;DHT22;50159;49.426;11.182;2023-11-19T13:41:08;14.50;99.90
11538;DHT22;50159;49.426;11.182;2023-11-19T13:43:36;14.50;99.90
11538;DHT22;50159;49.426;11.182;2023-11-19T13:46:04;15.20;99.90
11538;DHT22;50159;49.426;11.182;2023-11-19T13:48:31;16.30;97.20
11538;DHT22;50159;49.426;11.182;2023-11-19T13:50:58;16.50;96.80
11538;DHT22;50159;49.426;11.182;2023-11-19T13:53:26;16.90;95.50
11538;DHT22;50159;49.426;11.182;2023-11-19T13:55:53;16.70;93.80
11538;DHT22;50159;49.426;11.182;2023-11-19T13:58:20;16.40;94.50
11538;DHT22;50159;49.426;11.182;2023-11-19T14:00:46;16.10;95.70
11538;DHT22;50159;49.426;11.182;2023-11-19T14:03:13;16.50;93.90
11538;DHT22;50159;49.426;11.182;2023-11-19T14:05:41;16.10;94.30
11538;DHT22;50159;49.426;11.182;2023-11-19T14:08:08;15.60;95.80
11538;DHT22;50159;49.426;11.182;2023-11-19T14:10:51;15.40;96.30
11538;DHT22;50159;49.426;11.182;2023-11-19T14:13:18;15.60;97.60
11538;DHT22;50159;49.426;11.182;2023-11-19T14:15:45;17.30;96.80
11538;DHT22;50159;49.426;11.182;2023-11-19T14:18:16;19.10;91.80
11538;DHT22;50159;49.426;11.182;2023-11-19T14:20:43;20.10;78.50
11538;DHT22;50159;49.426;11.182;2023-11-19T14:23:10;19.70;77.10
11538;DHT22;50159;49.426;11.182;2023-11-19T14:25:37;18.70;75.00
11538;DHT22;50159;49.426;11.182;2023-11-19T14:28:04;17.40;78.30
11538;DHT22;50159;49.426;11.182;2023-11-19T14:30:32;16.40;81.80
11538;DHT22;50159;49.426;11.182;2023-11-19T14:33:01;15.60;86.10
11538;DHT22;50159;49.426;11.182;2023-11-19T14:35:28;15.00;89.70
11538;DHT22;50159;49.426;11.182;2023-11-19T14:37:56;14.70;90.40
11538;DHT22;50159;49.426;11.182;2023-11-19T14:40:23;14.30;91.50
11538;DHT22;50159;49.426;11.182;2023-11-19T14:43:08;14.10;92.40
11538;DHT22;50159;49.426;11.182;2023-11-19T14:45:39;14.00;92.80
11538;DHT22;50159;49.426;11.182;2023-11-19T14:48:15;13.90;93.50
11538;DHT22;50159;49.426;11.182;2023-11-19T14:50:44;13.80;93.30
11538;DHT22;50159;49.426;11.182;2023-11-19T14:53:13;13.60;93.80
11538;DHT22;50159;49.426;11.182;2023-11-19T14:55:41;13.50;94.40
11538;DHT22;50159;49.426;11.182;2023-11-19T14:58:07;13.50;94.80
11538;DHT22;50159;49.426;11.182;2023-11-19T15:00:38;13.40;95.20
11538;DHT22;50159;49.426;11.182;2023-11-19T15:03:05;13.40;95.60
11538;DHT22;50159;49.426;11.182;2023-11-19T15:05:33;13.40;95.90
11538;DHT22;50159;49.426;11.182;2023-11-19T15:08:01;13.40;96.20
11538;DHT22;50159;49.426;11.182;2023-11-19T15:10:29;13.30;96.00
11538;DHT22;50159;49.426;11.182;2023-11-19T15:12:56;13.30;96.40
11538;DHT22;50159;49.426;11.182;2023-11-19T15:15:23;13.20;96.70
11538;DHT22;50159;49.426;11.182;2023-11-19T15:17:53;13.10;97.00
11538;DHT22;50159;49.426;11.182;2023-11-19T15:20:19;13.00;97.40
11538;DHT22;50159;49.426;11.182;2023-11-19T15:22:47;12.90;97.70
11538;DHT22;50159;49.426;11.182;2023-11-19T15:25:14;12.80;98.10
11538;DHT22;50159;49.426;11.182;2023-11-19T15:27:41;12.70;98.50
11538;DHT22;50159;49.426;11.182;2023-11-19T15:30:08;12.60;98.90
11538;DHT22;50159;49.426;11.182;2023-11-19T15:32:37;12.60;99.40
11538;DHT22;50159;49.426;11.182;2023-11-19T15:35:05;12.50;99.90
11538;DHT22;50159;49.426;11.182;2023-11-19T15:37:35;12.40;99.90
11538;DHT22;50159;49.426;11.182;2023-11-19T15:40:02;12.40;99.90
11538;DHT22;50159;49.426;11.182;2023-11-19T15:42:35;12.30;99.90
11538;DHT22;50159;49.426;11.182;2023-11-19T15:45:02;12.30;99.90
11538;DHT22;50159;49.426;11.182;2023-11-19T15:47:31;12.20;99.90
11538;DHT22;50159;49.426;11.182;2023-11-19T15:49:59;12.10;99.90